Terminal Aerodrome Forecast
Issued by NWS

Home | Current Version | Previous Version | Text Only | Print | Product List | Glossary On
Versions: 1 2 3 4 5 6 7 8 9 10 11 12 13 14 15
000
FTUS43 KMQT 171900 AAB
TAFSAW
TAF AMD
KSAW 171938Z 1720/1818 01010G18KT P6SM SCT005 BKN010
      TEMPO 1720/1721 6SM BR BKN005
     FM180100 02007KT P6SM SCT025
     FM181300 08007KT P6SM SCT200
      AMD LTD TO CLD VIS AND WIND 1802/1810=

USA.gov is the U.S. government's official web portal to all federal, state and local government web resources and services.